createdAt,value
2023-03-23T00:00:23.912Z,9.719215
2023-03-23T00:01:23.888Z,9.719107
2023-03-23T00:02:23.917Z,9.719153
2023-03-23T00:03:23.900Z,9.719092
2023-03-23T00:04:23.880Z,9.719151
2023-03-23T00:05:23.935Z,9.719127
2023-03-23T00:06:23.851Z,9.719155
2023-03-23T00:07:23.842Z,9.719218
2023-03-23T00:08:23.836Z,9.719224
2023-03-23T00:09:23.876Z,9.719294
2023-03-23T00:10:23.822Z,9.719028
2023-03-23T00:11:23.807Z,9.719107
2023-03-23T00:12:23.790Z,9.719246
2023-03-23T00:13:24.798Z,9.719226
2023-03-23T00:14:23.811Z,9.719225
2023-03-23T00:15:23.758Z,9.719151
2023-03-23T00:16:23.746Z,9.719170
2023-03-23T00:17:23.754Z,9.719150
2023-03-23T00:18:23.770Z,9.719323
2023-03-23T00:19:25.101Z,9.719343
2023-03-23T00:20:23.710Z,9.719219
2023-03-23T00:21:23.696Z,9.719048
2023-03-23T00:22:23.737Z,9.719193
2023-03-23T00:23:23.674Z,9.719270
2023-03-23T00:24:23.667Z,9.719200
2023-03-23T00:25:23.760Z,9.719245
2023-03-23T00:26:23.640Z,9.719299
2023-03-23T00:27:23.658Z,9.718895
2023-03-23T00:28:23.625Z,9.719009
2023-03-23T00:29:23.629Z,9.718933
2023-03-23T00:30:23.606Z,9.718966
2023-03-23T00:31:23.596Z,9.719035
2023-03-23T00:32:23.601Z,9.719152
2023-03-23T00:33:23.586Z,9.719064
2023-03-23T00:34:23.569Z,9.719009
2023-03-23T00:35:23.612Z,9.719086
2023-03-23T00:36:23.588Z,9.719205
2023-03-23T00:37:23.535Z,9.719163
2023-03-23T00:38:24.546Z,9.719147
2023-03-23T00:39:23.519Z,9.719191
2023-03-23T00:40:23.513Z,9.719082
2023-03-23T00:41:23.526Z,9.719263
2023-03-23T00:42:23.525Z,9.719055
2023-03-23T00:43:23.478Z,9.719012
2023-03-23T00:44:23.499Z,9.719049
2023-03-23T00:45:23.459Z,9.719073
2023-03-23T00:46:23.457Z,9.719090
2023-03-23T00:47:23.442Z,9.719060
2023-03-23T00:48:23.427Z,9.719107
2023-03-23T00:49:23.443Z,9.719192
2023-03-23T00:50:29.488Z,9.719226
2023-03-23T00:51:24.401Z,9.719093
2023-03-23T00:52:23.399Z,9.719174
2023-03-23T00:53:23.389Z,9.719190
2023-03-23T00:54:23.393Z,9.719173
2023-03-23T00:55:23.361Z,9.719102
2023-03-23T00:56:23.378Z,9.719171
2023-03-23T00:57:23.412Z,9.719120
2023-03-23T00:58:23.341Z,9.719128
2023-03-23T00:59:23.344Z,9.719131
2023-03-23T01:00:23.331Z,9.719103
2023-03-23T01:01:23.339Z,9.719097
2023-03-23T01:02:23.297Z,9.719044
2023-03-23T01:03:23.289Z,9.719145
2023-03-23T01:04:23.283Z,9.719191
2023-03-23T01:05:23.289Z,9.719196
2023-03-23T01:06:23.256Z,9.719242
2023-03-23T01:07:23.245Z,9.719160
2023-03-23T01:08:23.234Z,9.719216
2023-03-23T01:09:23.219Z,9.719193
2023-03-23T01:10:23.202Z,9.719224
2023-03-23T01:11:23.218Z,9.719258
2023-03-23T01:12:23.195Z,9.719259
2023-03-23T01:13:23.176Z,9.719209
2023-03-23T01:14:23.170Z,9.719266
2023-03-23T01:15:23.165Z,9.719349
2023-03-23T01:16:23.165Z,9.719381
2023-03-23T01:17:23.144Z,9.719396
2023-03-23T01:18:23.138Z,9.719473
2023-03-23T01:19:24.650Z,9.719400
2023-03-23T01:20:23.104Z,9.719367
2023-03-23T01:21:23.108Z,9.719417
2023-03-23T01:22:23.090Z,9.719479
2023-03-23T01:23:23.088Z,9.719452
2023-03-23T01:24:23.090Z,9.719398
2023-03-23T01:25:23.079Z,9.719280
2023-03-23T01:26:23.054Z,9.719254
2023-03-23T01:27:23.043Z,9.719316
2023-03-23T01:28:23.054Z,9.719529
2023-03-23T01:29:23.022Z,9.719391
2023-03-23T01:30:23.010Z,9.719423
2023-03-23T01:31:23.064Z,9.719351
2023-03-23T01:32:22.992Z,9.719215
2023-03-23T01:33:22.976Z,9.719043
2023-03-23T01:34:22.968Z,9.719059
2023-03-23T01:35:22.995Z,9.719059
2023-03-23T01:36:22.974Z,9.719059
2023-03-23T01:37:22.945Z,9.719059
2023-03-23T01:38:22.951Z,9.719059
2023-03-23T01:39:22.933Z,9.719059
2023-03-23T01:40:22.916Z,9.719059
2023-03-23T01:41:22.910Z,9.719059
2023-03-23T01:42:22.908Z,9.719059
2023-03-23T01:43:22.904Z,9.719059
2023-03-23T01:44:22.882Z,9.719059
2023-03-23T01:45:22.875Z,9.718961
2023-03-23T01:46:22.886Z,9.718968
2023-03-23T01:47:22.852Z,9.718956
2023-03-23T01:48:22.842Z,9.718970
2023-03-23T01:49:22.840Z,9.719014
2023-03-23T01:50:22.815Z,9.719083
2023-03-23T01:51:26.233Z,9.719053
2023-03-23T01:52:23.924Z,9.719082
2023-03-23T01:53:22.788Z,9.719106
2023-03-23T01:54:22.799Z,9.719132
2023-03-23T01:55:22.767Z,9.719090
2023-03-23T01:56:22.757Z,9.719031
2023-03-23T01:57:22.754Z,9.718927
2023-03-23T01:58:22.730Z,9.719028
2023-03-23T01:59:54.661Z,9.719165
2023-03-23T02:00:22.718Z,9.719086
2023-03-23T02:01:22.731Z,9.718916
2023-03-23T02:02:22.750Z,9.718955
2023-03-23T02:03:22.717Z,9.718954
2023-03-23T02:04:22.689Z,9.718975
2023-03-23T02:05:22.676Z,9.719102
2023-03-23T02:06:22.667Z,9.719066
2023-03-23T02:07:22.665Z,9.719084
2023-03-23T02:08:22.669Z,9.718931
2023-03-23T02:09:22.661Z,9.719004
2023-03-23T02:10:22.622Z,9.720049
2023-03-23T02:11:22.629Z,9.719825
2023-03-23T02:12:22.600Z,9.719686
2023-03-23T02:13:22.608Z,9.719419
2023-03-23T02:14:22.577Z,9.719419
2023-03-23T02:15:22.572Z,9.719419
2023-03-23T02:16:22.606Z,9.719246
2023-03-23T02:17:22.548Z,9.719366
2023-03-23T02:18:22.567Z,9.719969
2023-03-23T02:19:22.546Z,9.719510
2023-03-23T02:20:22.523Z,9.719283
2023-03-23T02:21:22.520Z,9.719187
2023-03-23T02:22:22.509Z,9.719497
2023-03-23T02:23:22.522Z,9.719999
2023-03-23T02:24:22.483Z,9.719156
2023-03-23T02:25:22.483Z,9.719131
2023-03-23T02:26:22.468Z,9.719158
2023-03-23T02:27:22.448Z,9.720070
2023-03-23T02:28:22.446Z,9.718995
2023-03-23T02:29:22.461Z,9.718994
2023-03-23T02:30:22.428Z,9.719043
2023-03-23T02:31:22.433Z,9.719183
2023-03-23T02:32:22.433Z,9.718367
2023-03-23T02:33:23.394Z,9.718291
2023-03-23T02:34:22.415Z,9.719008
2023-03-23T02:35:22.410Z,9.719040
2023-03-23T02:36:22.368Z,9.719155
2023-03-23T02:37:22.363Z,9.719169
2023-03-23T02:38:22.393Z,9.719196
2023-03-23T02:39:22.378Z,9.719094
2023-03-23T02:40:22.318Z,9.719229
2023-03-23T02:41:22.327Z,9.719284
2023-03-23T02:42:22.338Z,9.719127
2023-03-23T02:43:22.312Z,9.719044
2023-03-23T02:44:23.286Z,9.718997
2023-03-23T02:45:22.275Z,9.718829
2023-03-23T02:46:22.269Z,9.719038
2023-03-23T02:47:22.284Z,9.719030
2023-03-23T02:48:22.253Z,9.718871
2023-03-23T02:49:22.301Z,9.719241
2023-03-23T02:50:22.238Z,9.719229
2023-03-23T02:51:22.221Z,9.719133
2023-03-23T02:52:22.232Z,9.718931
2023-03-23T02:53:22.196Z,9.719083
2023-03-23T02:54:22.185Z,9.719278
2023-03-23T02:55:22.221Z,9.719764
2023-03-23T02:56:22.201Z,9.719764
2023-03-23T02:57:22.203Z,9.719342
2023-03-23T02:58:23.157Z,9.719151
2023-03-23T02:59:22.144Z,9.719217
2023-03-23T03:00:22.153Z,9.719316
2023-03-23T03:01:22.128Z,9.719362
2023-03-23T03:02:22.107Z,9.719265
2023-03-23T03:03:22.098Z,9.719553
2023-03-23T03:04:22.101Z,9.719192
2023-03-23T03:05:22.117Z,9.719178
2023-03-23T03:06:22.069Z,9.719432
2023-03-23T03:07:22.047Z,9.719501
2023-03-23T03:08:22.058Z,9.719750
2023-03-23T03:09:22.037Z,9.719673
2023-03-23T03:10:22.026Z,9.719911
2023-03-23T03:11:22.039Z,9.719945
2023-03-23T03:12:22.041Z,9.719533
2023-03-23T03:13:22.001Z,9.719603
2023-03-23T03:14:22.006Z,9.719522
2023-03-23T03:15:21.997Z,9.719386
2023-03-23T03:16:21.974Z,9.719470
2023-03-23T03:17:21.986Z,9.719493
2023-03-23T03:18:21.999Z,9.719583
2023-03-23T03:19:21.948Z,9.719454
2023-03-23T03:20:21.970Z,9.719384
2023-03-23T03:21:21.940Z,9.719347
2023-03-23T03:22:21.906Z,9.719212
2023-03-23T03:23:21.931Z,9.719434
2023-03-23T03:24:22.010Z,9.719638
2023-03-23T03:25:21.948Z,9.719408
2023-03-23T03:26:21.891Z,9.719453
2023-03-23T03:27:21.867Z,9.719528
2023-03-23T03:28:21.868Z,9.719475
2023-03-23T03:29:21.850Z,9.719366
2023-03-23T03:30:21.885Z,9.719380
2023-03-23T03:31:21.844Z,9.719507
2023-03-23T03:32:21.810Z,9.719549
2023-03-23T03:33:21.825Z,9.719373
2023-03-23T03:34:21.818Z,9.719273
2023-03-23T03:35:21.783Z,9.719310
2023-03-23T03:36:21.785Z,9.719233
2023-03-23T03:37:21.793Z,9.719316
2023-03-23T03:38:21.770Z,9.719320
2023-03-23T03:39:21.751Z,9.719288
2023-03-23T03:40:21.757Z,9.719254
2023-03-23T03:41:21.736Z,9.719266
2023-03-23T03:42:21.720Z,9.719385
2023-03-23T03:43:21.722Z,9.719280
2023-03-23T03:44:21.702Z,9.719353
2023-03-23T03:45:21.743Z,9.719411
2023-03-23T03:46:21.676Z,9.719346
2023-03-23T03:47:21.658Z,9.719207
2023-03-23T03:48:21.684Z,9.719329
2023-03-23T03:49:21.644Z,9.719381
2023-03-23T03:50:21.638Z,9.719325
2023-03-23T03:51:21.625Z,9.719319
2023-03-23T03:52:21.618Z,9.719216
2023-03-23T03:53:21.602Z,9.719270
2023-03-23T03:54:22.621Z,9.719240
2023-03-23T03:55:21.595Z,9.719172
2023-03-23T03:56:21.586Z,9.719209
2023-03-23T03:57:21.603Z,9.719228
2023-03-23T03:58:21.565Z,9.719367
2023-03-23T03:59:23.230Z,9.719242
2023-03-23T04:00:21.586Z,9.719290
2023-03-23T04:01:21.537Z,9.719606
2023-03-23T04:02:21.568Z,9.719017
2023-03-23T04:03:21.510Z,9.718588
2023-03-23T04:04:21.508Z,9.719142
2023-03-23T04:05:21.484Z,9.719114
2023-03-23T04:06:21.477Z,9.719138
2023-03-23T04:07:21.511Z,9.719188
2023-03-23T04:08:21.547Z,9.719144
2023-03-23T04:09:21.451Z,9.719207
2023-03-23T04:10:32.864Z,9.719314
2023-03-23T04:11:33.305Z,9.719220
2023-03-23T04:12:21.414Z,9.719116
2023-03-23T04:13:21.422Z,9.719113
2023-03-23T04:14:21.405Z,9.719110
2023-03-23T04:15:21.393Z,9.719280
2023-03-23T04:16:21.384Z,9.719073
2023-03-23T04:17:21.369Z,9.719138
2023-03-23T04:18:21.367Z,9.719043
2023-03-23T04:19:21.397Z,9.719071
2023-03-23T04:20:32.060Z,9.718973
2023-03-23T04:21:22.330Z,9.718984
2023-03-23T04:22:21.337Z,9.718984
2023-03-23T04:23:21.323Z,9.718990
2023-03-23T04:24:23.064Z,9.718987
2023-03-23T04:25:21.300Z,9.719038
2023-03-23T04:26:21.284Z,9.719016
2023-03-23T04:27:21.307Z,9.719002
2023-03-23T04:28:21.264Z,9.719031
2023-03-23T04:29:21.303Z,9.719019
2023-03-23T04:30:21.250Z,9.718943
2023-03-23T04:31:21.242Z,9.718996
2023-03-23T04:32:21.253Z,9.718993
2023-03-23T04:33:22.313Z,9.719054
2023-03-23T04:34:21.201Z,9.718948
2023-03-23T04:35:21.194Z,9.718928
2023-03-23T04:36:21.215Z,9.718866
2023-03-23T04:37:21.173Z,9.718996
2023-03-23T04:38:21.218Z,9.719042
2023-03-23T04:39:21.181Z,9.719029
2023-03-23T04:40:21.218Z,9.719053
2023-03-23T04:41:21.129Z,9.719041
2023-03-23T04:42:21.124Z,9.718960
2023-03-23T04:43:21.126Z,9.719034
2023-03-23T04:44:21.156Z,9.719061
2023-03-23T04:45:21.128Z,9.719074
2023-03-23T04:46:21.083Z,9.719059
2023-03-23T04:47:21.070Z,9.719082
2023-03-23T04:48:21.126Z,9.719112
2023-03-23T04:49:21.066Z,9.719102
2023-03-23T04:50:21.051Z,9.719115
2023-03-23T04:51:21.044Z,9.719137
2023-03-23T04:52:21.036Z,9.719141
2023-03-23T04:53:21.049Z,9.719102
2023-03-23T04:54:21.019Z,9.719080
2023-03-23T04:55:20.989Z,9.719050
2023-03-23T04:56:21.002Z,9.719091
2023-03-23T04:57:20.971Z,9.719111
2023-03-23T04:58:20.966Z,9.719111
2023-03-23T04:59:20.956Z,9.719111
2023-03-23T05:00:20.965Z,9.719173
2023-03-23T05:01:21.012Z,9.719134
2023-03-23T05:02:20.927Z,9.719150
2023-03-23T05:03:20.943Z,9.719204
2023-03-23T05:04:20.907Z,9.719251
2023-03-23T05:05:20.955Z,9.719241
2023-03-23T05:06:20.873Z,9.719220
2023-03-23T05:07:20.894Z,9.719185
2023-03-23T05:08:20.896Z,9.719177
2023-03-23T05:09:20.928Z,9.719187
2023-03-23T05:10:25.153Z,9.719126
2023-03-23T05:11:20.849Z,9.719172
2023-03-23T05:12:20.815Z,9.719135
2023-03-23T05:13:20.875Z,9.719266
2023-03-23T05:14:20.821Z,9.719130
2023-03-23T05:15:20.791Z,9.719222
2023-03-23T05:16:20.803Z,9.719082
2023-03-23T05:17:20.769Z,9.719254
2023-03-23T05:18:20.798Z,9.719275
2023-03-23T05:19:20.743Z,9.719393
2023-03-23T05:20:20.729Z,9.719358
2023-03-23T05:21:20.740Z,9.719302
2023-03-23T05:22:20.734Z,9.719281
2023-03-23T05:23:20.791Z,9.719161
2023-03-23T05:24:20.739Z,9.719419
2023-03-23T05:25:20.688Z,9.719484
2023-03-23T05:26:20.682Z,9.719415
2023-03-23T05:27:20.660Z,9.719372
2023-03-23T05:28:21.681Z,9.719364
2023-03-23T05:29:20.648Z,9.719142
2023-03-23T05:30:20.663Z,9.719212
2023-03-23T05:31:20.647Z,9.719146
2023-03-23T05:32:20.641Z,9.719211
2023-03-23T05:33:20.610Z,9.719307
2023-03-23T05:34:20.609Z,9.719395
2023-03-23T05:35:20.674Z,9.719444
2023-03-23T05:36:20.682Z,9.719365
2023-03-23T05:37:20.570Z,9.719354
2023-03-23T05:38:20.561Z,9.719337
2023-03-23T05:39:20.545Z,9.719317
2023-03-23T05:40:20.550Z,9.719441
2023-03-23T05:41:20.532Z,9.719491
2023-03-23T05:42:20.509Z,9.719316
2023-03-23T05:43:20.500Z,9.719356
2023-03-23T05:44:20.512Z,9.719277
2023-03-23T05:45:20.496Z,9.719200
2023-03-23T05:46:20.512Z,9.719265
2023-03-23T05:47:20.469Z,9.719282
2023-03-23T05:48:20.453Z,9.719498
2023-03-23T05:49:20.429Z,9.719387
2023-03-23T05:50:20.430Z,9.719341
2023-03-23T05:51:20.415Z,9.719288
2023-03-23T05:52:20.426Z,9.719280
2023-03-23T05:53:20.432Z,9.719263
2023-03-23T05:54:20.390Z,9.719198
2023-03-23T05:55:20.413Z,9.719215
2023-03-23T05:56:20.372Z,9.719252
2023-03-23T05:57:20.377Z,9.719201
2023-03-23T05:58:20.349Z,9.719261
2023-03-23T05:59:20.332Z,9.719268
2023-03-23T06:00:20.343Z,9.719187
2023-03-23T06:01:20.333Z,9.719268
2023-03-23T06:02:20.321Z,9.719165
2023-03-23T06:03:20.375Z,9.719088
2023-03-23T06:04:20.292Z,9.719112
2023-03-23T06:05:20.311Z,9.719297
2023-03-23T06:06:20.281Z,9.719197
2023-03-23T06:07:20.273Z,9.719094
2023-03-23T06:08:20.298Z,9.719024
2023-03-23T06:09:20.238Z,9.719031
2023-03-23T06:10:20.266Z,9.719093
2023-03-23T06:11:20.244Z,9.719101
2023-03-23T06:12:20.223Z,9.719144
2023-03-23T06:13:20.199Z,9.719155
2023-03-23T06:14:20.258Z,9.719122
2023-03-23T06:15:20.200Z,9.719157
2023-03-23T06:16:21.177Z,9.719068
2023-03-23T06:17:20.164Z,9.719074
2023-03-23T06:18:20.168Z,9.719022
2023-03-23T06:19:20.147Z,9.719063
2023-03-23T06:20:20.125Z,9.719009
2023-03-23T06:21:20.141Z,9.719047
2023-03-23T06:22:20.118Z,9.719068
2023-03-23T06:23:20.104Z,9.719069
2023-03-23T06:24:20.114Z,9.719047
2023-03-23T06:25:20.079Z,9.719046
2023-03-23T06:26:20.096Z,9.719032
2023-03-23T06:27:20.111Z,9.719103
2023-03-23T06:28:20.127Z,9.719073
2023-03-23T06:29:20.053Z,9.719081
2023-03-23T06:30:20.062Z,9.719113
2023-03-23T06:31:20.032Z,9.719074
2023-03-23T06:32:20.017Z,9.719090
2023-03-23T06:33:20.987Z,9.719025
2023-03-23T06:34:21.060Z,9.719230
2023-03-23T06:35:19.977Z,9.719205
2023-03-23T06:36:20.019Z,9.719016
2023-03-23T06:37:20.055Z,9.718982
2023-03-23T06:38:19.953Z,9.719199
2023-03-23T06:39:19.954Z,9.719009
2023-03-23T06:40:19.959Z,9.719049
2023-03-23T06:41:19.916Z,9.718885
2023-03-23T06:42:19.901Z,9.718863
2023-03-23T06:43:19.956Z,9.719179
2023-03-23T06:44:19.907Z,9.719131
2023-03-23T06:45:19.910Z,9.719213
2023-03-23T06:46:19.888Z,9.719311
2023-03-23T06:47:19.940Z,9.719356
2023-03-23T06:48:19.872Z,9.719410
2023-03-23T06:49:21.093Z,9.719175
2023-03-23T06:50:20.212Z,9.719413
2023-03-23T06:51:19.912Z,9.719226
2023-03-23T06:52:19.829Z,9.719293
2023-03-23T06:53:19.801Z,9.719503
2023-03-23T06:54:19.781Z,9.719242
2023-03-23T06:55:19.814Z,9.719254
2023-03-23T06:56:19.757Z,9.719271
2023-03-23T06:57:19.776Z,9.719170
2023-03-23T06:58:19.791Z,9.718900
2023-03-23T06:59:19.755Z,9.719195
2023-03-23T07:00:19.735Z,9.719151
2023-03-23T07:01:19.754Z,9.719482
2023-03-23T07:02:19.731Z,9.719319
2023-03-23T07:03:19.724Z,9.719397
2023-03-23T07:04:43.304Z,9.719398
2023-03-23T07:05:25.919Z,9.719249
2023-03-23T07:06:20.694Z,9.719346
2023-03-23T07:07:20.688Z,9.719269
2023-03-23T07:08:19.661Z,9.719263
2023-03-23T07:09:20.439Z,9.719217
2023-03-23T07:10:19.671Z,9.719375
2023-03-23T07:11:20.633Z,9.719299
2023-03-23T07:12:19.643Z,9.719250
2023-03-23T07:13:19.625Z,9.719233
2023-03-23T07:14:19.621Z,9.719260
2023-03-23T07:15:19.590Z,9.719223
2023-03-23T07:16:20.194Z,9.719276
2023-03-23T07:17:20.311Z,9.719269
2023-03-23T07:18:19.566Z,9.719319
2023-03-23T07:19:19.584Z,9.719279
2023-03-23T07:20:19.584Z,9.719267
2023-03-23T07:21:19.536Z,9.719269
2023-03-23T07:22:19.516Z,9.719293
2023-03-23T07:23:19.521Z,9.719275
2023-03-23T07:24:19.501Z,9.719285
2023-03-23T07:25:19.513Z,9.719226
2023-03-23T07:26:19.552Z,9.719253
2023-03-23T07:27:19.459Z,9.719282
2023-03-23T07:28:19.455Z,9.719338
2023-03-23T07:29:19.483Z,9.719335
2023-03-23T07:30:19.533Z,9.719311
2023-03-23T07:31:19.444Z,9.719328
2023-03-23T07:32:19.431Z,9.719296
2023-03-23T07:33:19.405Z,9.719345
2023-03-23T07:34:19.391Z,9.719359
2023-03-23T07:35:19.414Z,9.719333
2023-03-23T07:36:19.472Z,9.719241
2023-03-23T07:37:19.382Z,9.719203
2023-03-23T07:38:19.375Z,9.719238
2023-03-23T07:39:19.341Z,9.719153
2023-03-23T07:40:19.337Z,9.718999
2023-03-23T07:41:19.350Z,9.719151
2023-03-23T07:42:19.323Z,9.719144
2023-03-23T07:43:19.323Z,9.719263
2023-03-23T07:44:19.328Z,9.719308
2023-03-23T07:45:19.284Z,9.719321
2023-03-23T07:46:19.288Z,9.719306
2023-03-23T07:47:19.273Z,9.719315
2023-03-23T07:48:21.439Z,9.719373
2023-03-23T07:49:19.279Z,9.719392
2023-03-23T07:50:19.268Z,9.719405
2023-03-23T07:51:19.248Z,9.719424
2023-03-23T07:52:19.246Z,9.719427
2023-03-23T07:53:19.234Z,9.719387
2023-03-23T07:54:19.202Z,9.719379
2023-03-23T07:55:19.191Z,9.719441
2023-03-23T07:56:19.199Z,9.719343
2023-03-23T07:57:19.222Z,9.719219
2023-03-23T07:58:19.193Z,9.719318
2023-03-23T07:59:30.708Z,9.719316
2023-03-23T08:00:19.154Z,9.719413
2023-03-23T08:01:19.135Z,9.719280
2023-03-23T08:02:19.116Z,9.719332
2023-03-23T08:03:19.111Z,9.719429
2023-03-23T08:04:19.133Z,9.719468
2023-03-23T08:05:19.092Z,9.719284
2023-03-23T08:06:19.082Z,9.719364
2023-03-23T08:07:19.674Z,9.719454
2023-03-23T08:08:19.213Z,9.719475
2023-03-23T08:09:19.069Z,9.719378
2023-03-23T08:10:19.040Z,9.719372
2023-03-23T08:11:19.040Z,9.719425
2023-03-23T08:12:19.033Z,9.719549
2023-03-23T08:13:20.032Z,9.719507
2023-03-23T08:14:21.890Z,9.719327
2023-03-23T08:15:20.007Z,9.719375
2023-03-23T08:16:18.965Z,9.719291
2023-03-23T08:17:19.962Z,9.719300
2023-03-23T08:18:18.972Z,9.719266
2023-03-23T08:19:18.968Z,9.719380
2023-03-23T08:20:18.951Z,9.719332
2023-03-23T08:21:18.962Z,9.719431
2023-03-23T08:22:18.924Z,9.719329
2023-03-23T08:23:18.930Z,9.719498
2023-03-23T08:24:18.910Z,9.719399
2023-03-23T08:25:18.888Z,9.719546
2023-03-23T08:26:18.882Z,9.719605
2023-03-23T08:27:18.859Z,9.719278
2023-03-23T08:28:18.900Z,9.719106
2023-03-23T08:29:18.856Z,9.719130
2023-03-23T08:30:18.837Z,9.719546
2023-03-23T08:31:18.823Z,9.719296
2023-03-23T08:32:18.881Z,9.719093
2023-03-23T08:33:18.811Z,9.718960
2023-03-23T08:34:18.804Z,9.719133
2023-03-23T08:35:18.795Z,9.719131
2023-03-23T08:36:18.806Z,9.718889
2023-03-23T08:37:18.782Z,9.719192
2023-03-23T08:38:18.760Z,9.719334
2023-03-23T08:39:18.763Z,9.719375
2023-03-23T08:40:18.762Z,9.719418
2023-03-23T08:41:18.744Z,9.719344
2023-03-23T08:42:18.711Z,9.719506
2023-03-23T08:43:18.788Z,9.719506
2023-03-23T08:44:18.690Z,9.719506
2023-03-23T08:45:18.703Z,9.719506
2023-03-23T08:46:18.698Z,9.719506
2023-03-23T08:47:18.672Z,9.719506
2023-03-23T08:48:18.660Z,9.719506
2023-03-23T08:49:18.640Z,9.719506
2023-03-23T08:50:18.635Z,9.719506
2023-03-23T08:51:18.646Z,9.719506
2023-03-23T08:52:18.612Z,9.719506
2023-03-23T08:53:18.606Z,9.719506
2023-03-23T08:54:18.631Z,9.719506
2023-03-23T08:55:20.338Z,9.719506
2023-03-23T08:56:18.579Z,9.719113
2023-03-23T08:57:18.588Z,9.719077
2023-03-23T08:58:18.612Z,9.719091
2023-03-23T08:59:18.572Z,9.719082
2023-03-23T09:00:18.562Z,9.719138
2023-03-23T09:01:18.551Z,9.719215
2023-03-23T09:02:18.518Z,9.719161
2023-03-23T09:03:18.513Z,9.719234
2023-03-23T09:04:18.526Z,9.719211
2023-03-23T09:05:18.489Z,9.719166
2023-03-23T09:06:18.544Z,9.719075
2023-03-23T09:07:18.483Z,9.719100
2023-03-23T09:08:18.470Z,9.719260
2023-03-23T09:09:18.466Z,9.719294
2023-03-23T09:10:18.439Z,9.719284
2023-03-23T09:11:18.423Z,9.719209
2023-03-23T09:12:18.411Z,9.719252
2023-03-23T09:13:18.416Z,9.719234
2023-03-23T09:14:18.414Z,9.719231
2023-03-23T09:15:21.158Z,9.719181
2023-03-23T09:16:20.365Z,9.719250
2023-03-23T09:17:18.359Z,9.719278
2023-03-23T09:18:18.360Z,9.719275
2023-03-23T09:19:18.365Z,9.719230
2023-03-23T09:20:18.327Z,9.719115
2023-03-23T09:21:19.236Z,9.719138
2023-03-23T09:22:18.324Z,9.719125
2023-03-23T09:23:18.291Z,9.719205
2023-03-23T09:24:18.351Z,9.719132
2023-03-23T09:25:18.278Z,9.719104
2023-03-23T09:26:18.269Z,9.719127
2023-03-23T09:27:18.249Z,9.719076
2023-03-23T09:28:18.239Z,9.719026
2023-03-23T09:29:18.221Z,9.719090
2023-03-23T09:30:18.271Z,9.719118
2023-03-23T09:31:19.958Z,9.719211
2023-03-23T09:32:18.199Z,9.719216
2023-03-23T09:33:18.193Z,9.719217
2023-03-23T09:34:18.188Z,9.719217
2023-03-23T09:35:18.209Z,9.719191
2023-03-23T09:36:18.197Z,9.719228
2023-03-23T09:37:18.176Z,9.719214
2023-03-23T09:38:18.176Z,9.719206
2023-03-23T09:39:18.134Z,9.719123
2023-03-23T09:40:18.119Z,9.719102
2023-03-23T09:41:18.146Z,9.719190
2023-03-23T09:42:18.110Z,9.719310
2023-03-23T09:43:18.104Z,9.719209
2023-03-23T09:44:18.080Z,9.719223
2023-03-23T09:45:18.078Z,9.719134
2023-03-23T09:46:18.097Z,9.719134
2023-03-23T09:47:18.080Z,9.719028
2023-03-23T09:48:18.052Z,9.719121
2023-03-23T09:49:18.044Z,9.719097
2023-03-23T09:50:18.061Z,9.719069
2023-03-23T09:51:18.039Z,9.719122
2023-03-23T09:52:18.008Z,9.719234
2023-03-23T09:53:19.546Z,9.719274
2023-03-23T09:54:18.010Z,9.719215
2023-03-23T09:55:18.037Z,9.719140
2023-03-23T09:56:17.981Z,9.719089
2023-03-23T09:57:17.985Z,9.719263
2023-03-23T09:58:17.946Z,9.719118
2023-03-23T09:59:17.938Z,9.719231
2023-03-23T10:00:17.975Z,9.719140
2023-03-23T10:01:17.922Z,9.719218
2023-03-23T10:02:17.920Z,9.719166
2023-03-23T10:03:17.891Z,9.719104
2023-03-23T10:04:17.875Z,9.719270
2023-03-23T10:05:17.878Z,9.719006
2023-03-23T10:06:17.865Z,9.719049
2023-03-23T10:07:17.874Z,9.719138
2023-03-23T10:08:17.846Z,9.719419
2023-03-23T10:09:17.843Z,9.718773
2023-03-23T10:10:17.833Z,9.718868
2023-03-23T10:11:17.814Z,9.719008
2023-03-23T10:12:17.820Z,9.719028
2023-03-23T10:13:17.827Z,9.719063
2023-03-23T10:14:17.786Z,9.719354
2023-03-23T10:15:17.845Z,9.719393
2023-03-23T10:16:17.764Z,9.719385
2023-03-23T10:17:17.788Z,9.719212
2023-03-23T10:18:17.759Z,9.719031
2023-03-23T10:19:17.765Z,9.719180
2023-03-23T10:20:17.721Z,9.718839
2023-03-23T10:21:17.716Z,9.719400
2023-03-23T10:22:17.696Z,9.719176
2023-03-23T10:23:17.699Z,9.718570
2023-03-23T10:24:17.706Z,9.719130
2023-03-23T10:25:17.672Z,9.719232
2023-03-23T10:26:17.691Z,9.718958
2023-03-23T10:27:17.654Z,9.718679
2023-03-23T10:28:17.668Z,9.719228
2023-03-23T10:29:17.663Z,9.719164
2023-03-23T10:30:17.638Z,9.719358
2023-03-23T10:31:17.604Z,9.719270
2023-03-23T10:32:19.473Z,9.719169
2023-03-23T10:33:17.628Z,9.719125
2023-03-23T10:34:17.611Z,9.719008
2023-03-23T10:35:17.586Z,9.719110
2023-03-23T10:36:17.568Z,9.719778
2023-03-23T10:37:17.581Z,9.719490
2023-03-23T10:38:17.558Z,9.719459
2023-03-23T10:39:17.579Z,9.719352
2023-03-23T10:40:17.515Z,9.719419
2023-03-23T10:41:17.592Z,9.719229
2023-03-23T10:42:17.507Z,9.719398
2023-03-23T10:43:17.502Z,9.719602
2023-03-23T10:44:17.478Z,9.719500
2023-03-23T10:45:17.489Z,9.719307
2023-03-23T10:46:29.766Z,9.719275
2023-03-23T10:47:19.485Z,9.719042
2023-03-23T10:48:17.436Z,9.719249
2023-03-23T10:49:17.412Z,9.719210
2023-03-23T10:50:17.400Z,9.719234
2023-03-23T10:51:17.397Z,9.719058
2023-03-23T10:52:17.399Z,9.719007
2023-03-23T10:53:17.378Z,9.719161
2023-03-23T10:54:17.356Z,9.719099
2023-03-23T10:55:18.355Z,9.719193
2023-03-23T10:56:17.338Z,9.719258
2023-03-23T10:57:17.328Z,9.719312
2023-03-23T10:58:17.335Z,9.719182
2023-03-23T10:59:17.329Z,9.719062
2023-03-23T11:00:17.304Z,9.719252
2023-03-23T11:01:17.297Z,9.719203
2023-03-23T11:02:29.197Z,9.719170
2023-03-23T11:03:18.282Z,9.719134
2023-03-23T11:04:17.275Z,9.719095
2023-03-23T11:05:20.277Z,9.719027
2023-03-23T11:06:18.254Z,9.718987
2023-03-23T11:07:17.292Z,9.719020
2023-03-23T11:08:17.228Z,9.719146
2023-03-23T11:09:36.298Z,9.719185
2023-03-23T11:10:17.224Z,9.719193
2023-03-23T11:11:17.228Z,9.719102
2023-03-23T11:12:17.174Z,9.719193
2023-03-23T11:13:17.176Z,9.719523
2023-03-23T11:14:17.197Z,9.719294
2023-03-23T11:15:17.163Z,9.719189
2023-03-23T11:16:17.145Z,9.719214
2023-03-23T11:17:17.125Z,9.719217
2023-03-23T11:18:17.125Z,9.719205
2023-03-23T11:19:17.125Z,9.719304
2023-03-23T11:20:17.119Z,9.719072
2023-03-23T11:21:17.094Z,9.718835
2023-03-23T11:22:17.089Z,9.718922
2023-03-23T11:23:17.065Z,9.718639
2023-03-23T11:24:17.064Z,9.718463
2023-03-23T11:25:17.045Z,9.718881
2023-03-23T11:26:17.077Z,9.719048
2023-03-23T11:27:17.054Z,9.719320
2023-03-23T11:28:17.015Z,9.719219
2023-03-23T11:29:17.019Z,9.719282
2023-03-23T11:30:16.992Z,9.719231
2023-03-23T11:31:16.980Z,9.719466
2023-03-23T11:32:16.990Z,9.718931
2023-03-23T11:33:16.962Z,9.719414
2023-03-23T11:34:16.986Z,9.719347
2023-03-23T11:35:16.985Z,9.718955
2023-03-23T11:36:16.995Z,9.719021
2023-03-23T11:37:16.941Z,9.719113
2023-03-23T11:38:16.918Z,9.718886
2023-03-23T11:39:16.904Z,9.719218
2023-03-23T11:40:16.908Z,9.719213
2023-03-23T11:41:16.886Z,9.719227
2023-03-23T11:42:16.897Z,9.719223
2023-03-23T11:43:16.921Z,9.719388
2023-03-23T11:44:16.844Z,9.719037